sensor_id;sensor_type;location;lat;lon;timestamp;P1;durP1;ratioP1;P2;durP2;ratioP2
45650;SDS011;31365;48.858;8.530;2023-08-30T00:01:04;1.67;;;1.57;;
45650;SDS011;31365;48.858;8.530;2023-08-30T00:03:34;1.63;;;1.53;;
45650;SDS011;31365;48.858;8.530;2023-08-30T00:06:02;2.27;;;1.60;;
45650;SDS011;31365;48.858;8.530;2023-08-30T00:08:32;1.50;;;1.40;;
45650;SDS011;31365;48.858;8.530;2023-08-30T00:11:01;3.87;;;2.00;;
45650;SDS011;31365;48.858;8.530;2023-08-30T00:13:31;1.50;;;1.40;;
45650;SDS011;31365;48.858;8.530;2023-08-30T00:16:00;2.40;;;1.60;;
45650;SDS011;31365;48.858;8.530;2023-08-30T00:18:30;2.27;;;1.30;;
45650;SDS011;31365;48.858;8.530;2023-08-30T00:21:00;3.53;;;1.60;;
45650;SDS011;31365;48.858;8.530;2023-08-30T00:23:28;3.03;;;1.50;;
45650;SDS011;31365;48.858;8.530;2023-08-30T00:25:56;2.53;;;1.60;;
45650;SDS011;31365;48.858;8.530;2023-08-30T00:28:24;1.70;;;1.53;;
45650;SDS011;31365;48.858;8.530;2023-08-30T00:30:53;1.60;;;1.50;;
45650;SDS011;31365;48.858;8.530;2023-08-30T00:33:22;1.60;;;1.50;;
45650;SDS011;31365;48.858;8.530;2023-08-30T00:35:57;1.67;;;1.50;;
45650;SDS011;31365;48.858;8.530;2023-08-30T00:38:27;2.00;;;1.63;;
45650;SDS011;31365;48.858;8.530;2023-08-30T00:40:56;2.07;;;1.50;;
45650;SDS011;31365;48.858;8.530;2023-08-30T00:43:24;2.57;;;1.33;;
45650;SDS011;31365;48.858;8.530;2023-08-30T00:45:53;1.40;;;1.30;;
45650;SDS011;31365;48.858;8.530;2023-08-30T00:48:22;4.07;;;1.27;;
45650;SDS011;31365;48.858;8.530;2023-08-30T00:50:50;1.60;;;1.50;;
45650;SDS011;31365;48.858;8.530;2023-08-30T00:53:20;1.87;;;1.50;;
45650;SDS011;31365;48.858;8.530;2023-08-30T00:55:49;3.90;;;2.20;;
45650;SDS011;31365;48.858;8.530;2023-08-30T00:58:17;3.00;;;1.87;;
45650;SDS011;31365;48.858;8.530;2023-08-30T01:00:46;1.50;;;1.40;;
45650;SDS011;31365;48.858;8.530;2023-08-30T01:03:14;2.37;;;1.50;;
45650;SDS011;31365;48.858;8.530;2023-08-30T01:05:43;1.53;;;1.43;;
45650;SDS011;31365;48.858;8.530;2023-08-30T01:08:11;1.43;;;1.33;;
45650;SDS011;31365;48.858;8.530;2023-08-30T01:10:44;1.93;;;1.53;;
45650;SDS011;31365;48.858;8.530;2023-08-30T01:13:24;2.60;;;1.50;;
45650;SDS011;31365;48.858;8.530;2023-08-30T01:15:57;2.20;;;1.63;;
45650;SDS011;31365;48.858;8.530;2023-08-30T01:18:26;1.90;;;1.70;;
45650;SDS011;31365;48.858;8.530;2023-08-30T01:20:59;2.43;;;1.40;;
45650;SDS011;31365;48.858;8.530;2023-08-30T01:23:36;3.97;;;1.70;;
45650;SDS011;31365;48.858;8.530;2023-08-30T01:26:19;2.10;;;1.53;;
45650;SDS011;31365;48.858;8.530;2023-08-30T01:28:57;1.43;;;1.30;;
45650;SDS011;31365;48.858;8.530;2023-08-30T01:31:31;2.30;;;1.57;;
45650;SDS011;31365;48.858;8.530;2023-08-30T01:34:02;4.77;;;1.67;;
45650;SDS011;31365;48.858;8.530;2023-08-30T01:36:32;1.43;;;1.30;;
45650;SDS011;31365;48.858;8.530;2023-08-30T01:39:01;1.60;;;1.50;;
45650;SDS011;31365;48.858;8.530;2023-08-30T01:41:31;1.80;;;1.50;;
45650;SDS011;31365;48.858;8.530;2023-08-30T01:44:05;1.30;;;1.20;;
45650;SDS011;31365;48.858;8.530;2023-08-30T01:46:35;2.37;;;1.60;;
45650;SDS011;31365;48.858;8.530;2023-08-30T01:49:05;2.27;;;1.43;;
45650;SDS011;31365;48.858;8.530;2023-08-30T01:51:36;1.40;;;1.27;;
45650;SDS011;31365;48.858;8.530;2023-08-30T01:54:07;2.27;;;1.60;;
45650;SDS011;31365;48.858;8.530;2023-08-30T01:56:41;1.60;;;1.50;;
45650;SDS011;31365;48.858;8.530;2023-08-30T01:59:12;2.77;;;1.77;;
45650;SDS011;31365;48.858;8.530;2023-08-30T02:01:41;1.73;;;1.50;;
45650;SDS011;31365;48.858;8.530;2023-08-30T02:04:09;1.30;;;1.20;;
45650;SDS011;31365;48.858;8.530;2023-08-30T02:06:39;1.30;;;1.20;;
45650;SDS011;31365;48.858;8.530;2023-08-30T02:09:33;2.33;;;1.40;;
45650;SDS011;31365;48.858;8.530;2023-08-30T02:12:09;1.70;;;1.40;;
45650;SDS011;31365;48.858;8.530;2023-08-30T02:14:46;1.80;;;1.53;;
45650;SDS011;31365;48.858;8.530;2023-08-30T02:17:17;1.37;;;1.27;;
45650;SDS011;31365;48.858;8.530;2023-08-30T02:19:46;1.87;;;1.53;;
45650;SDS011;31365;48.858;8.530;2023-08-30T02:22:19;1.67;;;1.37;;
45650;SDS011;31365;48.858;8.530;2023-08-30T02:24:47;1.60;;;1.37;;
45650;SDS011;31365;48.858;8.530;2023-08-30T02:27:16;1.20;;;1.10;;
45650;SDS011;31365;48.858;8.530;2023-08-30T02:29:46;1.47;;;1.30;;
45650;SDS011;31365;48.858;8.530;2023-08-30T02:32:14;2.23;;;1.40;;
45650;SDS011;31365;48.858;8.530;2023-08-30T02:34:48;1.43;;;1.33;;
45650;SDS011;31365;48.858;8.530;2023-08-30T02:37:19;2.00;;;1.60;;
45650;SDS011;31365;48.858;8.530;2023-08-30T02:39:49;2.37;;;1.53;;
45650;SDS011;31365;48.858;8.530;2023-08-30T02:42:18;1.03;;;1.03;;
45650;SDS011;31365;48.858;8.530;2023-08-30T02:44:48;2.10;;;1.20;;
45650;SDS011;31365;48.858;8.530;2023-08-30T02:47:16;2.80;;;1.50;;
45650;SDS011;31365;48.858;8.530;2023-08-30T02:49:44;3.50;;;1.70;;
45650;SDS011;31365;48.858;8.530;2023-08-30T02:52:13;1.80;;;1.30;;
45650;SDS011;31365;48.858;8.530;2023-08-30T02:54:41;2.70;;;1.10;;
45650;SDS011;31365;48.858;8.530;2023-08-30T02:57:10;1.73;;;1.17;;
45650;SDS011;31365;48.858;8.530;2023-08-30T02:59:38;1.87;;;1.40;;
45650;SDS011;31365;48.858;8.530;2023-08-30T03:02:08;1.30;;;1.20;;
45650;SDS011;31365;48.858;8.530;2023-08-30T03:04:36;1.30;;;1.20;;
45650;SDS011;31365;48.858;8.530;2023-08-30T03:07:05;1.50;;;1.30;;
45650;SDS011;31365;48.858;8.530;2023-08-30T03:09:33;2.03;;;1.53;;
45650;SDS011;31365;48.858;8.530;2023-08-30T03:12:03;1.20;;;1.10;;
45650;SDS011;31365;48.858;8.530;2023-08-30T03:14:34;2.30;;;1.30;;
45650;SDS011;31365;48.858;8.530;2023-08-30T03:17:02;3.20;;;1.20;;
45650;SDS011;31365;48.858;8.530;2023-08-30T03:19:32;1.47;;;1.03;;
45650;SDS011;31365;48.858;8.530;2023-08-30T03:22:02;1.40;;;1.20;;
45650;SDS011;31365;48.858;8.530;2023-08-30T03:24:31;1.30;;;1.20;;
45650;SDS011;31365;48.858;8.530;2023-08-30T03:27:00;1.63;;;1.20;;
45650;SDS011;31365;48.858;8.530;2023-08-30T03:29:28;1.40;;;1.30;;
45650;SDS011;31365;48.858;8.530;2023-08-30T03:31:56;1.43;;;1.10;;
45650;SDS011;31365;48.858;8.530;2023-08-30T03:34:25;1.80;;;1.27;;
45650;SDS011;31365;48.858;8.530;2023-08-30T03:36:54;1.47;;;1.20;;
45650;SDS011;31365;48.858;8.530;2023-08-30T03:39:23;2.17;;;1.23;;
45650;SDS011;31365;48.858;8.530;2023-08-30T03:41:52;1.90;;;1.37;;
45650;SDS011;31365;48.858;8.530;2023-08-30T03:44:22;2.03;;;1.20;;
45650;SDS011;31365;48.858;8.530;2023-08-30T03:46:50;1.90;;;1.27;;
45650;SDS011;31365;48.858;8.530;2023-08-30T03:49:19;4.97;;;1.40;;
45650;SDS011;31365;48.858;8.530;2023-08-30T03:51:47;1.80;;;1.10;;
45650;SDS011;31365;48.858;8.530;2023-08-30T03:54:17;2.60;;;1.57;;
45650;SDS011;31365;48.858;8.530;2023-08-30T03:56:45;1.97;;;1.33;;
45650;SDS011;31365;48.858;8.530;2023-08-30T03:59:14;2.40;;;1.40;;
45650;SDS011;31365;48.858;8.530;2023-08-30T04:01:42;1.33;;;1.13;;
45650;SDS011;31365;48.858;8.530;2023-08-30T04:04:12;1.53;;;1.40;;
45650;SDS011;31365;48.858;8.530;2023-08-30T04:06:41;1.30;;;1.20;;
45650;SDS011;31365;48.858;8.530;2023-08-30T04:09:09;2.17;;;1.33;;
45650;SDS011;31365;48.858;8.530;2023-08-30T04:11:39;1.80;;;1.60;;
45650;SDS011;31365;48.858;8.530;2023-08-30T04:14:09;1.40;;;1.30;;
45650;SDS011;31365;48.858;8.530;2023-08-30T04:16:38;1.83;;;1.40;;
45650;SDS011;31365;48.858;8.530;2023-08-30T04:19:06;3.57;;;1.40;;
45650;SDS011;31365;48.858;8.530;2023-08-30T04:21:35;1.40;;;1.30;;
45650;SDS011;31365;48.858;8.530;2023-08-30T04:24:04;1.67;;;1.57;;
45650;SDS011;31365;48.858;8.530;2023-08-30T04:26:34;1.53;;;1.43;;
45650;SDS011;31365;48.858;8.530;2023-08-30T04:29:04;2.13;;;1.30;;
45650;SDS011;31365;48.858;8.530;2023-08-30T04:31:32;1.77;;;1.60;;
45650;SDS011;31365;48.858;8.530;2023-08-30T04:34:01;2.63;;;1.33;;
45650;SDS011;31365;48.858;8.530;2023-08-30T04:36:29;1.80;;;1.70;;
45650;SDS011;31365;48.858;8.530;2023-08-30T04:38:57;3.07;;;1.80;;
45650;SDS011;31365;48.858;8.530;2023-08-30T04:41:31;1.87;;;1.53;;
45650;SDS011;31365;48.858;8.530;2023-08-30T04:44:00;2.27;;;1.70;;
45650;SDS011;31365;48.858;8.530;2023-08-30T04:46:30;3.43;;;1.87;;
45650;SDS011;31365;48.858;8.530;2023-08-30T04:48:59;2.30;;;2.10;;
45650;SDS011;31365;48.858;8.530;2023-08-30T04:51:28;1.70;;;1.60;;
45650;SDS011;31365;48.858;8.530;2023-08-30T04:53:56;2.53;;;2.07;;
45650;SDS011;31365;48.858;8.530;2023-08-30T04:56:25;2.20;;;2.00;;
45650;SDS011;31365;48.858;8.530;2023-08-30T04:58:53;1.90;;;1.80;;
45650;SDS011;31365;48.858;8.530;2023-08-30T05:01:24;1.93;;;1.43;;
45650;SDS011;31365;48.858;8.530;2023-08-30T05:03:56;2.40;;;1.97;;
45650;SDS011;31365;48.858;8.530;2023-08-30T05:06:24;2.40;;;2.10;;
45650;SDS011;31365;48.858;8.530;2023-08-30T05:08:54;3.63;;;2.20;;
45650;SDS011;31365;48.858;8.530;2023-08-30T05:11:22;4.13;;;2.40;;
45650;SDS011;31365;48.858;8.530;2023-08-30T05:13:50;5.33;;;1.97;;
45650;SDS011;31365;48.858;8.530;2023-08-30T05:16:18;2.00;;;1.90;;
45650;SDS011;31365;48.858;8.530;2023-08-30T05:18:47;3.07;;;2.23;;
45650;SDS011;31365;48.858;8.530;2023-08-30T05:21:17;1.90;;;1.80;;
45650;SDS011;31365;48.858;8.530;2023-08-30T05:23:46;2.53;;;2.00;;
45650;SDS011;31365;48.858;8.530;2023-08-30T05:26:14;2.40;;;2.10;;
45650;SDS011;31365;48.858;8.530;2023-08-30T05:28:43;3.97;;;1.93;;
45650;SDS011;31365;48.858;8.530;2023-08-30T05:31:12;3.00;;;2.03;;
45650;SDS011;31365;48.858;8.530;2023-08-30T05:34:18;3.03;;;2.10;;
45650;SDS011;31365;48.858;8.530;2023-08-30T05:37:15;2.03;;;1.83;;
45650;SDS011;31365;48.858;8.530;2023-08-30T05:40:04;2.37;;;2.13;;
45650;SDS011;31365;48.858;8.530;2023-08-30T05:42:35;2.20;;;1.97;;
45650;SDS011;31365;48.858;8.530;2023-08-30T05:45:04;1.80;;;1.70;;
45650;SDS011;31365;48.858;8.530;2023-08-30T05:47:34;2.33;;;2.07;;
45650;SDS011;31365;48.858;8.530;2023-08-30T05:50:02;3.03;;;2.30;;
45650;SDS011;31365;48.858;8.530;2023-08-30T05:52:33;4.47;;;2.53;;
45650;SDS011;31365;48.858;8.530;2023-08-30T05:55:02;2.93;;;1.97;;
45650;SDS011;31365;48.858;8.530;2023-08-30T05:57:31;4.30;;;2.20;;
45650;SDS011;31365;48.858;8.530;2023-08-30T06:00:00;2.33;;;2.13;;
45650;SDS011;31365;48.858;8.530;2023-08-30T06:02:38;2.15;;;1.80;;
45650;SDS011;31365;48.858;8.530;2023-08-30T06:05:07;3.27;;;2.30;;
45650;SDS011;31365;48.858;8.530;2023-08-30T06:07:38;4.23;;;2.27;;
45650;SDS011;31365;48.858;8.530;2023-08-30T06:10:06;3.80;;;2.17;;
45650;SDS011;31365;48.858;8.530;2023-08-30T06:12:35;1.70;;;1.60;;
45650;SDS011;31365;48.858;8.530;2023-08-30T06:15:04;2.75;;;1.88;;
45650;SDS011;31365;48.858;8.530;2023-08-30T06:17:33;2.53;;;2.07;;
45650;SDS011;31365;48.858;8.530;2023-08-30T06:20:02;2.17;;;1.75;;
45650;SDS011;31365;48.858;8.530;2023-08-30T06:22:31;2.00;;;1.90;;
45650;SDS011;31365;48.858;8.530;2023-08-30T06:25:01;1.93;;;1.83;;
45650;SDS011;31365;48.858;8.530;2023-08-30T06:27:30;2.10;;;1.90;;
45650;SDS011;31365;48.858;8.530;2023-08-30T06:29:59;2.13;;;1.92;;
45650;SDS011;31365;48.858;8.530;2023-08-30T06:32:27;2.00;;;1.90;;
45650;SDS011;31365;48.858;8.530;2023-08-30T06:34:55;2.63;;;2.10;;
45650;SDS011;31365;48.858;8.530;2023-08-30T06:37:24;1.67;;;1.57;;
45650;SDS011;31365;48.858;8.530;2023-08-30T06:39:52;2.03;;;1.92;;
45650;SDS011;31365;48.858;8.530;2023-08-30T06:42:23;3.03;;;2.30;;
45650;SDS011;31365;48.858;8.530;2023-08-30T06:44:51;2.40;;;2.00;;
45650;SDS011;31365;48.858;8.530;2023-08-30T06:47:20;2.47;;;1.90;;
45650;SDS011;31365;48.858;8.530;2023-08-30T06:49:48;3.25;;;2.60;;
45650;SDS011;31365;48.858;8.530;2023-08-30T06:52:16;4.07;;;2.03;;
45650;SDS011;31365;48.858;8.530;2023-08-30T06:54:44;2.08;;;1.92;;
45650;SDS011;31365;48.858;8.530;2023-08-30T06:57:12;2.10;;;1.90;;
45650;SDS011;31365;48.858;8.530;2023-08-30T06:59:42;3.83;;;1.95;;
45650;SDS011;31365;48.858;8.530;2023-08-30T07:02:10;2.22;;;2.03;;
45650;SDS011;31365;48.858;8.530;2023-08-30T07:04:39;1.77;;;1.67;;
45650;SDS011;31365;48.858;8.530;2023-08-30T07:07:08;7.43;;;2.33;;
45650;SDS011;31365;48.858;8.530;2023-08-30T07:09:36;14.57;;;3.00;;
45650;SDS011;31365;48.858;8.530;2023-08-30T07:12:05;4.40;;;2.38;;
45650;SDS011;31365;48.858;8.530;2023-08-30T07:14:34;3.05;;;2.28;;
45650;SDS011;31365;48.858;8.530;2023-08-30T07:17:04;6.93;;;2.05;;
45650;SDS011;31365;48.858;8.530;2023-08-30T07:19:32;11.05;;;2.90;;
45650;SDS011;31365;48.858;8.530;2023-08-30T07:22:01;3.63;;;1.85;;
45650;SDS011;31365;48.858;8.530;2023-08-30T07:24:29;5.28;;;2.13;;
45650;SDS011;31365;48.858;8.530;2023-08-30T07:26:57;4.85;;;2.00;;
45650;SDS011;31365;48.858;8.530;2023-08-30T07:29:25;2.03;;;1.92;;
45650;SDS011;31365;48.858;8.530;2023-08-30T07:31:53;2.20;;;2.08;;
45650;SDS011;31365;48.858;8.530;2023-08-30T07:34:23;2.03;;;1.88;;
45650;SDS011;31365;48.858;8.530;2023-08-30T07:36:53;1.80;;;1.70;;
45650;SDS011;31365;48.858;8.530;2023-08-30T07:39:22;2.10;;;1.90;;
45650;SDS011;31365;48.858;8.530;2023-08-30T07:41:51;2.55;;;1.92;;
45650;SDS011;31365;48.858;8.530;2023-08-30T07:44:19;1.70;;;1.60;;
45650;SDS011;31365;48.858;8.530;2023-08-30T07:46:47;2.10;;;1.90;;
45650;SDS011;31365;48.858;8.530;2023-08-30T07:49:15;2.47;;;1.60;;
45650;SDS011;31365;48.858;8.530;2023-08-30T07:51:45;3.17;;;1.83;;
45650;SDS011;31365;48.858;8.530;2023-08-30T07:54:13;2.67;;;1.60;;
45650;SDS011;31365;48.858;8.530;2023-08-30T07:56:42;2.35;;;2.13;;
45650;SDS011;31365;48.858;8.530;2023-08-30T07:59:10;1.70;;;1.60;;
45650;SDS011;31365;48.858;8.530;2023-08-30T08:01:38;3.22;;;1.75;;
45650;SDS011;31365;48.858;8.530;2023-08-30T08:04:06;3.38;;;2.00;;
45650;SDS011;31365;48.858;8.530;2023-08-30T08:06:35;1.98;;;1.75;;
45650;SDS011;31365;48.858;8.530;2023-08-30T08:09:05;3.13;;;1.60;;
45650;SDS011;31365;48.858;8.530;2023-08-30T08:11:33;1.52;;;1.42;;
45650;SDS011;31365;48.858;8.530;2023-08-30T08:14:02;2.30;;;1.80;;
45650;SDS011;31365;48.858;8.530;2023-08-30T08:16:30;1.60;;;1.50;;
45650;SDS011;31365;48.858;8.530;2023-08-30T08:18:59;1.77;;;1.67;;
45650;SDS011;31365;48.858;8.530;2023-08-30T08:21:28;2.75;;;2.00;;
45650;SDS011;31365;48.858;8.530;2023-08-30T08:23:56;1.83;;;1.60;;
45650;SDS011;31365;48.858;8.530;2023-08-30T08:26:26;4.63;;;1.92;;
45650;SDS011;31365;48.858;8.530;2023-08-30T08:28:54;2.15;;;1.95;;
45650;SDS011;31365;48.858;8.530;2023-08-30T08:31:24;1.95;;;1.85;;
45650;SDS011;31365;48.858;8.530;2023-08-30T08:34:06;3.15;;;1.75;;
45650;SDS011;31365;48.858;8.530;2023-08-30T08:36:37;2.47;;;1.60;;
45650;SDS011;31365;48.858;8.530;2023-08-30T08:39:08;1.80;;;1.63;;
45650;SDS011;31365;48.858;8.530;2023-08-30T08:41:40;1.80;;;1.70;;
45650;SDS011;31365;48.858;8.530;2023-08-30T08:44:10;2.15;;;1.92;;
45650;SDS011;31365;48.858;8.530;2023-08-30T08:46:40;1.70;;;1.60;;
45650;SDS011;31365;48.858;8.530;2023-08-30T08:49:11;3.88;;;1.75;;
45650;SDS011;31365;48.858;8.530;2023-08-30T08:51:41;1.92;;;1.80;;
45650;SDS011;31365;48.858;8.530;2023-08-30T08:54:10;1.88;;;1.67;;
45650;SDS011;31365;48.858;8.530;2023-08-30T08:56:41;2.17;;;1.70;;
45650;SDS011;31365;48.858;8.530;2023-08-30T08:59:12;2.88;;;2.00;;
45650;SDS011;31365;48.858;8.530;2023-08-30T09:01:40;3.38;;;1.83;;
45650;SDS011;31365;48.858;8.530;2023-08-30T09:04:10;2.22;;;2.08;;
45650;SDS011;31365;48.858;8.530;2023-08-30T09:06:40;2.08;;;1.77;;
45650;SDS011;31365;48.858;8.530;2023-08-30T09:09:10;2.78;;;1.70;;
45650;SDS011;31365;48.858;8.530;2023-08-30T09:11:39;1.70;;;1.60;;
45650;SDS011;31365;48.858;8.530;2023-08-30T09:14:17;3.28;;;2.00;;
45650;SDS011;31365;48.858;8.530;2023-08-30T09:16:54;2.63;;;1.90;;
45650;SDS011;31365;48.858;8.530;2023-08-30T09:19:23;2.50;;;1.80;;
45650;SDS011;31365;48.858;8.530;2023-08-30T09:21:51;2.00;;;1.80;;
45650;SDS011;31365;48.858;8.530;2023-08-30T09:24:20;2.15;;;1.85;;
45650;SDS011;31365;48.858;8.530;2023-08-30T09:26:51;1.88;;;1.70;;
45650;SDS011;31365;48.858;8.530;2023-08-30T09:29:22;1.92;;;1.75;;
45650;SDS011;31365;48.858;8.530;2023-08-30T09:31:50;2.78;;;2.10;;
45650;SDS011;31365;48.858;8.530;2023-08-30T09:34:22;2.55;;;1.77;;
45650;SDS011;31365;48.858;8.530;2023-08-30T09:36:51;2.63;;;1.83;;
45650;SDS011;31365;48.858;8.530;2023-08-30T09:39:21;2.00;;;1.60;;
45650;SDS011;31365;48.858;8.530;2023-08-30T09:41:51;2.90;;;1.52;;
45650;SDS011;31365;48.858;8.530;2023-08-30T09:44:21;1.67;;;1.55;;
45650;SDS011;31365;48.858;8.530;2023-08-30T09:46:51;2.03;;;1.80;;
45650;SDS011;31365;48.858;8.530;2023-08-30T09:49:22;1.90;;;1.77;;
45650;SDS011;31365;48.858;8.530;2023-08-30T09:51:53;1.70;;;1.60;;
45650;SDS011;31365;48.858;8.530;2023-08-30T09:54:22;2.30;;;2.10;;
45650;SDS011;31365;48.858;8.530;2023-08-30T09:57:06;3.03;;;1.80;;
45650;SDS011;31365;48.858;8.530;2023-08-30T09:59:35;1.80;;;1.70;;
45650;SDS011;31365;48.858;8.530;2023-08-30T10:02:05;1.88;;;1.77;;
45650;SDS011;31365;48.858;8.530;2023-08-30T10:04:36;2.03;;;1.83;;
45650;SDS011;31365;48.858;8.530;2023-08-30T10:07:07;2.10;;;1.90;;
45650;SDS011;31365;48.858;8.530;2023-08-30T10:09:38;2.20;;;1.85;;
45650;SDS011;31365;48.858;8.530;2023-08-30T10:12:18;3.55;;;1.50;;
45650;SDS011;31365;48.858;8.530;2023-08-30T10:14:48;2.15;;;1.67;;
45650;SDS011;31365;48.858;8.530;2023-08-30T10:17:17;1.95;;;1.85;;
45650;SDS011;31365;48.858;8.530;2023-08-30T10:19:50;2.10;;;1.90;;
45650;SDS011;31365;48.858;8.530;2023-08-30T10:22:21;2.22;;;2.03;;
45650;SDS011;31365;48.858;8.530;2023-08-30T10:24:52;1.70;;;1.60;;
45650;SDS011;31365;48.858;8.530;2023-08-30T10:27:39;2.90;;;2.13;;
45650;SDS011;31365;48.858;8.530;2023-08-30T10:30:12;2.58;;;1.80;;
45650;SDS011;31365;48.858;8.530;2023-08-30T10:32:44;1.60;;;1.50;;
45650;SDS011;31365;48.858;8.530;2023-08-30T10:35:13;2.17;;;1.98;;
45650;SDS011;31365;48.858;8.530;2023-08-30T10:37:53;2.00;;;1.60;;
45650;SDS011;31365;48.858;8.530;2023-08-30T10:40:22;2.30;;;1.63;;
45650;SDS011;31365;48.858;8.530;2023-08-30T10:43:01;2.88;;;1.75;;
45650;SDS011;31365;48.858;8.530;2023-08-30T10:45:31;1.70;;;1.60;;
45650;SDS011;31365;48.858;8.530;2023-08-30T10:47:59;1.75;;;1.65;;
45650;SDS011;31365;48.858;8.530;2023-08-30T10:50:29;1.70;;;1.60;;
45650;SDS011;31365;48.858;8.530;2023-08-30T10:52:59;1.90;;;1.70;;
45650;SDS011;31365;48.858;8.530;2023-08-30T10:55:28;2.35;;;1.50;;
45650;SDS011;31365;48.858;8.530;2023-08-30T10:57:59;2.70;;;1.60;;
45650;SDS011;31365;48.858;8.530;2023-08-30T11:00:31;2.60;;;1.63;;
45650;SDS011;31365;48.858;8.530;2023-08-30T11:03:00;1.75;;;1.65;;
45650;SDS011;31365;48.858;8.530;2023-08-30T11:05:29;3.65;;;1.38;;
45650;SDS011;31365;48.858;8.530;2023-08-30T11:07:57;2.95;;;1.40;;
45650;SDS011;31365;48.858;8.530;2023-08-30T11:10:25;2.65;;;1.35;;
45650;SDS011;31365;48.858;8.530;2023-08-30T11:12:55;1.73;;;1.60;;
45650;SDS011;31365;48.858;8.530;2023-08-30T11:15:25;1.70;;;1.60;;
45650;SDS011;31365;48.858;8.530;2023-08-30T11:18:01;2.95;;;1.20;;
45650;SDS011;31365;48.858;8.530;2023-08-30T11:20:31;1.85;;;1.50;;
45650;SDS011;31365;48.858;8.530;2023-08-30T11:22:59;1.50;;;1.40;;
45650;SDS011;31365;48.858;8.530;2023-08-30T11:25:30;2.50;;;1.40;;
45650;SDS011;31365;48.858;8.530;2023-08-30T11:28:02;1.20;;;1.00;;
45650;SDS011;31365;48.858;8.530;2023-08-30T11:30:32;1.88;;;1.20;;
45650;SDS011;31365;48.858;8.530;2023-08-30T11:33:00;3.88;;;1.38;;
45650;SDS011;31365;48.858;8.530;2023-08-30T11:35:31;1.45;;;1.05;;
45650;SDS011;31365;48.858;8.530;2023-08-30T11:37:59;3.10;;;1.65;;
45650;SDS011;31365;48.858;8.530;2023-08-30T11:40:28;3.17;;;1.42;;
45650;SDS011;31365;48.858;8.530;2023-08-30T11:42:56;1.25;;;1.15;;
45650;SDS011;31365;48.858;8.530;2023-08-30T11:45:25;1.13;;;1.00;;
45650;SDS011;31365;48.858;8.530;2023-08-30T11:47:54;1.52;;;1.05;;
45650;SDS011;31365;48.858;8.530;2023-08-30T11:50:23;2.38;;;1.52;;
45650;SDS011;31365;48.858;8.530;2023-08-30T11:52:58;1.30;;;1.10;;
45650;SDS011;31365;48.858;8.530;2023-08-30T11:55:26;1.50;;;1.17;;
45650;SDS011;31365;48.858;8.530;2023-08-30T11:57:54;2.45;;;1.40;;
45650;SDS011;31365;48.858;8.530;2023-08-30T12:00:23;3.28;;;1.30;;
45650;SDS011;31365;48.858;8.530;2023-08-30T12:02:52;2.90;;;1.38;;
45650;SDS011;31365;48.858;8.530;2023-08-30T12:05:22;2.00;;;1.30;;
45650;SDS011;31365;48.858;8.530;2023-08-30T12:07:50;1.35;;;1.25;;
45650;SDS011;31365;48.858;8.530;2023-08-30T12:10:18;2.15;;;1.35;;
45650;SDS011;31365;48.858;8.530;2023-08-30T12:12:47;2.30;;;1.20;;
45650;SDS011;31365;48.858;8.530;2023-08-30T12:15:16;1.23;;;1.13;;
45650;SDS011;31365;48.858;8.530;2023-08-30T12:17:44;1.75;;;1.20;;
45650;SDS011;31365;48.858;8.530;2023-08-30T12:20:17;4.72;;;1.45;;
45650;SDS011;31365;48.858;8.530;2023-08-30T12:22:49;1.27;;;1.13;;
45650;SDS011;31365;48.858;8.530;2023-08-30T12:25:19;1.58;;;1.23;;
45650;SDS011;31365;48.858;8.530;2023-08-30T12:27:50;1.40;;;1.30;;
45650;SDS011;31365;48.858;8.530;2023-08-30T12:30:19;1.38;;;1.10;;
45650;SDS011;31365;48.858;8.530;2023-08-30T12:32:47;3.45;;;1.20;;
45650;SDS011;31365;48.858;8.530;2023-08-30T12:35:18;2.03;;;1.30;;
45650;SDS011;31365;48.858;8.530;2023-08-30T12:37:46;5.35;;;1.23;;
45650;SDS011;31365;48.858;8.530;2023-08-30T12:40:14;1.38;;;1.20;;
45650;SDS011;31365;48.858;8.530;2023-08-30T12:42:42;4.30;;;1.40;;
45650;SDS011;31365;48.858;8.530;2023-08-30T12:45:10;2.95;;;1.35;;
45650;SDS011;31365;48.858;8.530;2023-08-30T12:47:39;0.98;;;0.98;;
45650;SDS011;31365;48.858;8.530;2023-08-30T12:50:07;7.40;;;1.30;;
45650;SDS011;31365;48.858;8.530;2023-08-30T12:52:37;1.80;;;1.60;;
45650;SDS011;31365;48.858;8.530;2023-08-30T12:55:05;1.30;;;1.17;;
45650;SDS011;31365;48.858;8.530;2023-08-30T12:57:36;2.08;;;1.60;;
45650;SDS011;31365;48.858;8.530;2023-08-30T13:00:04;1.23;;;1.13;;
45650;SDS011;31365;48.858;8.530;2023-08-30T13:02:34;1.58;;;1.30;;
45650;SDS011;31365;48.858;8.530;2023-08-30T13:05:03;1.95;;;1.38;;
45650;SDS011;31365;48.858;8.530;2023-08-30T13:07:31;1.50;;;1.40;;
45650;SDS011;31365;48.858;8.530;2023-08-30T13:10:03;1.50;;;1.40;;
45650;SDS011;31365;48.858;8.530;2023-08-30T13:12:33;1.50;;;1.40;;
45650;SDS011;31365;48.858;8.530;2023-08-30T13:15:03;2.30;;;1.40;;
45650;SDS011;31365;48.858;8.530;2023-08-30T13:17:33;1.63;;;1.50;;
45650;SDS011;31365;48.858;8.530;2023-08-30T13:20:01;2.95;;;1.60;;
45650;SDS011;31365;48.858;8.530;2023-08-30T13:22:31;2.53;;;1.40;;
45650;SDS011;31365;48.858;8.530;2023-08-30T13:25:00;1.58;;;1.48;;
45650;SDS011;31365;48.858;8.530;2023-08-30T13:27:31;1.63;;;1.48;;
45650;SDS011;31365;48.858;8.530;2023-08-30T13:29:59;2.47;;;1.40;;
45650;SDS011;31365;48.858;8.530;2023-08-30T13:32:28;1.80;;;1.60;;
45650;SDS011;31365;48.858;8.530;2023-08-30T13:34:56;1.65;;;1.55;;
45650;SDS011;31365;48.858;8.530;2023-08-30T13:37:25;2.83;;;1.70;;
45650;SDS011;31365;48.858;8.530;2023-08-30T13:39:53;1.83;;;1.30;;
45650;SDS011;31365;48.858;8.530;2023-08-30T13:42:22;1.38;;;1.30;;
45650;SDS011;31365;48.858;8.530;2023-08-30T13:44:51;2.85;;;1.50;;
45650;SDS011;31365;48.858;8.530;2023-08-30T13:47:19;1.77;;;1.60;;
45650;SDS011;31365;48.858;8.530;2023-08-30T13:49:48;2.08;;;1.63;;
45650;SDS011;31365;48.858;8.530;2023-08-30T13:52:17;2.42;;;1.23;;
45650;SDS011;31365;48.858;8.530;2023-08-30T13:54:44;2.35;;;1.70;;
45650;SDS011;31365;48.858;8.530;2023-08-30T13:57:13;2.88;;;1.35;;
45650;SDS011;31365;48.858;8.530;2023-08-30T13:59:43;1.40;;;1.30;;
45650;SDS011;31365;48.858;8.530;2023-08-30T14:02:12;1.85;;;1.45;;
45650;SDS011;31365;48.858;8.530;2023-08-30T14:04:41;2.28;;;1.15;;
45650;SDS011;31365;48.858;8.530;2023-08-30T14:07:09;2.63;;;2.10;;
45650;SDS011;31365;48.858;8.530;2023-08-30T14:09:38;1.45;;;1.30;;
45650;SDS011;31365;48.858;8.530;2023-08-30T14:12:07;1.85;;;1.50;;
45650;SDS011;31365;48.858;8.530;2023-08-30T14:14:36;1.40;;;1.30;;
45650;SDS011;31365;48.858;8.530;2023-08-30T14:17:06;1.40;;;1.30;;
45650;SDS011;31365;48.858;8.530;2023-08-30T14:19:34;1.40;;;1.30;;
45650;SDS011;31365;48.858;8.530;2023-08-30T14:22:03;1.48;;;1.38;;
45650;SDS011;31365;48.858;8.530;2023-08-30T14:24:32;2.63;;;1.40;;
45650;SDS011;31365;48.858;8.530;2023-08-30T14:27:13;2.22;;;1.33;;
45650;SDS011;31365;48.858;8.530;2023-08-30T14:29:42;1.38;;;1.27;;
45650;SDS011;31365;48.858;8.530;2023-08-30T14:32:12;1.70;;;1.27;;
45650;SDS011;31365;48.858;8.530;2023-08-30T14:34:41;2.15;;;1.45;;
45650;SDS011;31365;48.858;8.530;2023-08-30T14:37:09;1.13;;;1.02;;
45650;SDS011;31365;48.858;8.530;2023-08-30T14:39:38;2.85;;;1.77;;
45650;SDS011;31365;48.858;8.530;2023-08-30T14:42:06;1.65;;;1.52;;
45650;SDS011;31365;48.858;8.530;2023-08-30T14:44:35;1.10;;;1.10;;
45650;SDS011;31365;48.858;8.530;2023-08-30T14:47:04;1.33;;;1.13;;
45650;SDS011;31365;48.858;8.530;2023-08-30T14:49:35;3.55;;;1.42;;
45650;SDS011;31365;48.858;8.530;2023-08-30T14:52:04;1.42;;;1.30;;
45650;SDS011;31365;48.858;8.530;2023-08-30T14:54:32;1.73;;;1.38;;
45650;SDS011;31365;48.858;8.530;2023-08-30T14:57:02;1.20;;;1.10;;
45650;SDS011;31365;48.858;8.530;2023-08-30T14:59:30;2.55;;;1.30;;
45650;SDS011;31365;48.858;8.530;2023-08-30T15:01:59;1.48;;;1.27;;
45650;SDS011;31365;48.858;8.530;2023-08-30T15:04:28;1.98;;;1.40;;